createdAt,value
2018-05-08T00:00:16.084Z,8.00
2018-05-08T00:01:16.057Z,8.00
2018-05-08T00:02:16.073Z,8.00
2018-05-08T00:03:16.154Z,8.00
2018-05-08T00:04:16.016Z,8.00
2018-05-08T00:05:16.001Z,8.00
2018-05-08T00:06:15.989Z,8.00
2018-05-08T00:07:15.974Z,8.00
2018-05-08T00:08:15.959Z,8.00
2018-05-08T00:09:15.948Z,12.00
2018-05-08T00:10:15.932Z,8.00
2018-05-08T00:11:15.921Z,8.00
2018-05-08T00:12:15.911Z,8.00
2018-05-08T00:13:15.889Z,8.00
2018-05-08T00:14:15.888Z,8.00
2018-05-08T00:15:15.868Z,8.00
2018-05-08T00:16:15.856Z,8.00
2018-05-08T00:17:15.839Z,8.00
2018-05-08T00:18:15.820Z,8.00
2018-05-08T00:19:15.816Z,8.00
2018-05-08T00:20:15.792Z,8.00
2018-05-08T00:21:15.778Z,8.00
2018-05-08T00:22:15.764Z,8.00
2018-05-08T00:23:15.750Z,8.00
2018-05-08T00:24:15.744Z,8.00
2018-05-08T00:25:15.723Z,8.00
2018-05-08T00:26:15.709Z,8.00
2018-05-08T00:27:15.698Z,8.00
2018-05-08T00:28:15.689Z,8.00
2018-05-08T00:29:15.667Z,8.00
2018-05-08T00:30:15.659Z,8.00
2018-05-08T00:31:15.639Z,8.00
2018-05-08T00:32:15.622Z,8.00
2018-05-08T00:33:15.610Z,8.00
2018-05-08T00:34:15.602Z,8.00
2018-05-08T00:35:15.586Z,8.00
2018-05-08T00:36:15.567Z,8.00
2018-05-08T00:37:15.553Z,8.00
2018-05-08T00:38:15.538Z,8.00
2018-05-08T00:39:15.526Z,8.00
2018-05-08T00:40:15.524Z,8.00
2018-05-08T00:41:15.497Z,8.00
2018-05-08T00:42:15.483Z,8.00
2018-05-08T00:43:15.477Z,8.00
2018-05-08T00:44:15.454Z,8.00
2018-05-08T00:45:15.441Z,8.00
2018-05-08T00:46:15.434Z,8.00
2018-05-08T00:47:15.413Z,8.00
2018-05-08T00:48:15.411Z,8.00
2018-05-08T00:49:15.384Z,8.00
2018-05-08T00:50:15.376Z,8.00
2018-05-08T00:51:15.426Z,8.00
2018-05-08T00:52:15.351Z,8.00
2018-05-08T00:53:15.327Z,8.00
2018-05-08T00:54:15.318Z,8.00
2018-05-08T00:55:15.299Z,8.00
2018-05-08T00:56:15.287Z,8.00
2018-05-08T00:57:15.275Z,8.00
2018-05-08T00:58:15.257Z,8.00
2018-05-08T00:59:15.247Z,8.00
2018-05-08T01:00:15.226Z,8.00
2018-05-08T01:01:15.216Z,8.00
2018-05-08T01:02:15.199Z,8.00
2018-05-08T01:03:15.185Z,8.00
2018-05-08T01:04:15.176Z,8.00
2018-05-08T01:05:15.164Z,8.00
2018-05-08T01:06:15.151Z,8.00
2018-05-08T01:07:15.129Z,8.00
2018-05-08T01:08:15.117Z,8.00
2018-05-08T01:09:15.119Z,8.00
2018-05-08T01:10:15.101Z,8.00
2018-05-08T01:11:15.075Z,8.00
2018-05-08T01:12:15.058Z,12.00
2018-05-08T01:13:15.049Z,8.00
2018-05-08T01:14:15.029Z,8.00
2018-05-08T01:15:15.016Z,8.00
2018-05-08T01:16:15.003Z,8.00
2018-05-08T01:17:14.986Z,8.00
2018-05-08T01:18:14.988Z,8.00
2018-05-08T01:19:14.966Z,8.00
2018-05-08T01:20:14.943Z,8.00
2018-05-08T01:21:14.929Z,8.00
2018-05-08T01:22:14.965Z,8.00
2018-05-08T01:23:14.899Z,8.00
2018-05-08T01:24:14.884Z,8.00
2018-05-08T01:25:14.870Z,8.00
2018-05-08T01:26:14.856Z,8.00
2018-05-08T01:27:14.842Z,8.00
2018-05-08T01:28:14.828Z,8.00
2018-05-08T01:29:14.818Z,8.00
2018-05-08T01:30:14.799Z,8.00
2018-05-08T01:31:14.790Z,12.00
2018-05-08T01:32:14.769Z,12.00
2018-05-08T01:33:14.752Z,8.00
2018-05-08T01:34:14.746Z,12.00
2018-05-08T01:35:14.725Z,8.00
2018-05-08T01:36:14.710Z,8.00
2018-05-08T01:37:14.701Z,8.00
2018-05-08T01:38:14.682Z,8.00
2018-05-08T01:39:14.670Z,8.00
2018-05-08T01:40:14.652Z,8.00
2018-05-08T01:41:14.637Z,8.00
2018-05-08T01:42:14.623Z,8.00
2018-05-08T01:43:14.687Z,8.00
2018-05-08T01:44:14.602Z,8.00
2018-05-08T01:45:14.584Z,8.00
2018-05-08T01:46:14.567Z,8.00
2018-05-08T01:47:14.560Z,8.00
2018-05-08T01:48:14.538Z,8.00
2018-05-08T01:49:14.527Z,8.00
2018-05-08T01:50:14.508Z,8.00
2018-05-08T01:51:14.491Z,12.00
2018-05-08T01:52:14.478Z,8.00
2018-05-08T01:53:14.462Z,8.00
2018-05-08T01:54:14.448Z,8.00
2018-05-08T01:55:14.434Z,8.00
2018-05-08T01:56:14.418Z,8.00
2018-05-08T01:57:14.401Z,8.00
2018-05-08T01:58:14.389Z,8.00
2018-05-08T01:59:14.380Z,12.00
2018-05-08T02:00:14.359Z,8.00
2018-05-08T02:01:14.344Z,8.00
2018-05-08T02:02:14.329Z,8.00
2018-05-08T02:03:14.321Z,8.00
2018-05-08T02:04:14.299Z,8.00
2018-05-08T02:05:14.285Z,8.00
2018-05-08T02:06:14.268Z,8.00
2018-05-08T02:07:14.254Z,8.00
2018-05-08T02:08:14.241Z,8.00
2018-05-08T02:09:14.224Z,8.00
2018-05-08T02:10:14.209Z,8.00
2018-05-08T02:11:14.205Z,8.00
2018-05-08T02:12:14.188Z,8.00
2018-05-08T02:13:14.166Z,8.00
2018-05-08T02:14:14.151Z,8.00
2018-05-08T02:15:14.136Z,8.00
2018-05-08T02:16:14.122Z,8.00
2018-05-08T02:17:14.119Z,8.00
2018-05-08T02:18:14.093Z,8.00
2018-05-08T02:19:14.077Z,8.00
2018-05-08T02:20:14.062Z,8.00
2018-05-08T02:21:14.047Z,8.00
2018-05-08T02:22:14.031Z,8.00
2018-05-08T02:23:14.020Z,8.00
2018-05-08T02:24:14.003Z,8.00
2018-05-08T02:25:13.988Z,8.00
2018-05-08T02:26:13.974Z,8.00
2018-05-08T02:27:13.967Z,8.00
2018-05-08T02:28:13.942Z,8.00
2018-05-08T02:29:13.939Z,8.00
2018-05-08T02:30:13.915Z,8.00
2018-05-08T02:31:13.903Z,8.00
2018-05-08T02:32:13.891Z,8.00
2018-05-08T02:33:13.874Z,8.00
2018-05-08T02:34:13.856Z,8.00
2018-05-08T02:35:13.844Z,8.00
2018-05-08T02:36:13.825Z,8.00
2018-05-08T02:37:13.812Z,8.00
2018-05-08T02:38:13.796Z,8.00
2018-05-08T02:39:13.780Z,8.00
2018-05-08T02:40:13.766Z,8.00
2018-05-08T02:41:13.801Z,8.00
2018-05-08T02:42:13.736Z,8.00
2018-05-08T02:43:13.723Z,8.00
2018-05-08T02:44:13.705Z,8.00
2018-05-08T02:45:13.691Z,8.00
2018-05-08T02:46:13.677Z,8.00
2018-05-08T02:47:13.663Z,8.00
2018-05-08T02:48:13.647Z,8.00
2018-05-08T02:49:13.630Z,8.00
2018-05-08T02:50:13.622Z,8.00
2018-05-08T02:51:13.607Z,8.00
2018-05-08T02:52:13.595Z,8.00
2018-05-08T02:53:13.574Z,8.00
2018-05-08T02:54:13.559Z,8.00
2018-05-08T02:55:13.549Z,8.00
2018-05-08T02:56:13.528Z,8.00
2018-05-08T02:57:13.513Z,8.00
2018-05-08T02:58:13.497Z,8.00
2018-05-08T02:59:13.481Z,8.00
2018-05-08T03:00:13.466Z,8.00
2018-05-08T03:01:13.452Z,8.00
2018-05-08T03:02:13.437Z,8.00
2018-05-08T03:03:13.423Z,12.00
2018-05-08T03:04:13.407Z,12.00
2018-05-08T03:05:13.410Z,12.00
2018-05-08T03:06:13.385Z,12.00
2018-05-08T03:07:13.365Z,12.00
2018-05-08T03:08:13.346Z,8.00
2018-05-08T03:09:13.339Z,12.00
2018-05-08T03:10:13.315Z,12.00
2018-05-08T03:11:13.301Z,12.00
2018-05-08T03:12:13.285Z,12.00
2018-05-08T03:13:13.272Z,16.00
2018-05-08T03:14:13.254Z,12.00
2018-05-08T03:15:13.241Z,12.00
2018-05-08T03:16:13.225Z,12.00
2018-05-08T03:17:13.217Z,16.00
2018-05-08T03:18:13.203Z,20.00
2018-05-08T03:19:13.180Z,16.00
2018-05-08T03:20:13.164Z,20.00
2018-05-08T03:21:13.148Z,24.00
2018-05-08T03:22:13.135Z,24.00
2018-05-08T03:23:13.118Z,28.00
2018-05-08T03:24:13.104Z,28.00
2018-05-08T03:25:13.092Z,20.00
2018-05-08T03:26:13.077Z,28.00
2018-05-08T03:27:13.058Z,28.00
2018-05-08T03:28:13.043Z,32.00
2018-05-08T03:29:13.027Z,40.00
2018-05-08T03:30:13.013Z,40.00
2018-05-08T03:31:12.997Z,48.00
2018-05-08T03:32:12.981Z,52.00
2018-05-08T03:33:12.967Z,60.00
2018-05-08T03:34:12.956Z,64.00
2018-05-08T03:35:12.939Z,76.00
2018-05-08T03:36:12.922Z,84.00
2018-05-08T03:37:12.912Z,92.00
2018-05-08T03:38:12.892Z,104.00
2018-05-08T03:39:12.878Z,112.00
2018-05-08T03:40:12.865Z,128.00
2018-05-08T03:41:12.847Z,136.00
2018-05-08T03:42:12.833Z,152.00
2018-05-08T03:43:12.817Z,168.00
2018-05-08T03:44:12.801Z,184.00
2018-05-08T03:45:12.838Z,196.00
2018-05-08T03:46:12.773Z,216.00
2018-05-08T03:47:12.761Z,236.00
2018-05-08T03:48:12.750Z,256.00
2018-05-08T03:49:12.727Z,272.00
2018-05-08T03:50:12.729Z,292.00
2018-05-08T03:51:12.700Z,316.00
2018-05-08T03:52:12.681Z,336.00
2018-05-08T03:53:12.667Z,360.00
2018-05-08T03:54:12.651Z,388.00
2018-05-08T03:55:12.640Z,412.00
2018-05-08T03:56:12.619Z,436.00
2018-05-08T03:57:12.606Z,468.00
2018-05-08T03:58:12.590Z,492.00
2018-05-08T03:59:12.574Z,520.00
2018-05-08T04:00:12.558Z,552.00
2018-05-08T04:01:12.545Z,580.00
2018-05-08T04:02:12.532Z,612.00
2018-05-08T04:03:12.515Z,640.00
2018-05-08T04:04:12.499Z,676.00
2018-05-08T04:05:12.485Z,708.00
2018-05-08T04:06:12.473Z,740.00
2018-05-08T04:07:12.454Z,776.00
2018-05-08T04:08:12.440Z,808.00
2018-05-08T04:09:12.424Z,836.00
2018-05-08T04:10:12.407Z,872.00
2018-05-08T04:11:12.397Z,908.00
2018-05-08T04:12:12.378Z,940.00
2018-05-08T04:13:12.365Z,976.00
2018-05-08T04:14:12.349Z,1012.00
2018-05-08T04:15:12.343Z,1044.00
2018-05-08T04:16:12.317Z,1076.00
2018-05-08T04:17:12.307Z,1108.00
2018-05-08T04:18:12.286Z,1144.00
2018-05-08T04:19:12.272Z,1180.00
2018-05-08T04:20:12.258Z,1212.00
2018-05-08T04:21:12.241Z,1248.00
2018-05-08T04:22:12.225Z,1280.00
2018-05-08T04:23:12.213Z,1316.00
2018-05-08T04:24:12.195Z,1348.00
2018-05-08T04:25:12.181Z,1384.00
2018-05-08T04:26:12.166Z,1420.00
2018-05-08T04:27:12.150Z,1452.00
2018-05-08T04:28:12.137Z,1488.00
2018-05-08T04:29:12.120Z,1512.00
2018-05-08T04:30:12.105Z,1548.00
2018-05-08T04:31:12.090Z,1580.00
2018-05-08T04:32:12.076Z,1608.00
2018-05-08T04:33:12.059Z,1640.00
2018-05-08T04:34:12.048Z,1676.00
2018-05-08T04:35:12.029Z,1704.00
2018-05-08T04:36:12.013Z,1732.00
2018-05-08T04:37:11.999Z,1768.00
2018-05-08T04:38:11.983Z,1796.00
2018-05-08T04:39:11.969Z,1824.00
2018-05-08T04:40:11.957Z,1856.00
2018-05-08T04:41:11.945Z,1884.00
2018-05-08T04:42:11.924Z,1912.00
2018-05-08T04:43:11.909Z,1940.00
2018-05-08T04:44:11.891Z,1968.00
2018-05-08T04:45:11.877Z,2000.00
2018-05-08T04:46:11.863Z,2028.00
2018-05-08T04:47:11.846Z,2064.00
2018-05-08T04:48:11.831Z,2088.00
2018-05-08T04:49:11.819Z,2116.00
2018-05-08T04:50:11.802Z,2148.00
2018-05-08T04:51:11.788Z,2180.00
2018-05-08T04:52:11.772Z,2204.00
2018-05-08T04:53:11.757Z,2228.00
2018-05-08T04:54:11.741Z,2256.00
2018-05-08T04:55:11.732Z,2284.00
2018-05-08T04:56:11.711Z,2312.00
2018-05-08T04:57:11.712Z,2332.00
2018-05-08T04:58:11.681Z,2360.00
2018-05-08T04:59:11.675Z,2388.00
2018-05-08T05:00:11.651Z,2412.00
2018-05-08T05:01:11.638Z,2432.00
2018-05-08T05:02:11.627Z,2464.00
2018-05-08T05:03:11.607Z,2492.00
2018-05-08T05:04:11.590Z,2528.00
2018-05-08T05:05:11.576Z,2560.00
2018-05-08T05:06:11.561Z,2580.00
2018-05-08T05:07:11.547Z,2616.00
2018-05-08T05:08:11.529Z,2648.00
2018-05-08T05:09:11.513Z,2684.00
2018-05-08T05:10:11.499Z,2728.00
2018-05-08T05:11:11.570Z,2752.00
2018-05-08T05:12:11.476Z,2800.00
2018-05-08T05:13:11.452Z,2836.00
2018-05-08T05:14:11.439Z,2880.00
2018-05-08T05:15:11.429Z,2924.00
2018-05-08T05:16:11.407Z,2956.00
2018-05-08T05:17:11.391Z,3016.00
2018-05-08T05:18:11.375Z,3056.00
2018-05-08T05:19:11.363Z,3100.00
2018-05-08T05:20:11.346Z,3148.00
2018-05-08T05:21:11.341Z,3200.00
2018-05-08T05:22:11.374Z,3256.00
2018-05-08T05:23:11.301Z,3332.00
2018-05-08T05:24:11.287Z,3448.00
2018-05-08T05:25:11.269Z,3688.00
2018-05-08T05:26:11.271Z,4148.00
2018-05-08T05:27:11.247Z,6896.00
2018-05-08T05:28:11.225Z,25344.00
2018-05-08T05:29:11.210Z,39680.00
2018-05-08T05:30:11.194Z,39520.00
2018-05-08T05:31:11.189Z,38688.00
2018-05-08T05:32:11.168Z,39008.00
2018-05-08T05:33:11.153Z,40672.00
2018-05-08T05:34:11.139Z,40896.00
2018-05-08T05:35:11.132Z,40864.00
2018-05-08T05:36:11.109Z,40032.00
2018-05-08T05:37:11.103Z,41024.00
2018-05-08T05:38:11.083Z,44064.00
2018-05-08T05:39:11.072Z,45472.00
2018-05-08T05:40:11.059Z,43936.00
2018-05-08T05:41:11.046Z,43904.00
2018-05-08T05:42:11.038Z,45920.00
2018-05-08T05:43:11.024Z,47424.00
2018-05-08T05:44:11.014Z,48064.00
2018-05-08T05:45:11.005Z,48800.00
2018-05-08T05:46:10.994Z,46880.00
2018-05-08T05:47:10.992Z,44576.00
2018-05-08T05:48:10.974Z,47072.00
2018-05-08T05:49:10.964Z,48480.00
2018-05-08T05:50:10.956Z,48768.00
2018-05-08T05:51:10.949Z,50176.00
2018-05-08T05:52:10.947Z,51936.00
2018-05-08T05:53:10.948Z,53056.00
2018-05-08T05:54:10.922Z,52896.00
2018-05-08T05:55:10.913Z,52608.00
2018-05-08T05:56:10.907Z,53120.00
2018-05-08T05:57:10.899Z,52640.00
2018-05-08T05:58:10.891Z,53728.00
2018-05-08T05:59:10.889Z,57184.00
2018-05-08T06:00:10.899Z,55296.00
2018-05-08T06:01:10.873Z,52128.00
2018-05-08T06:02:10.868Z,53248.00
2018-05-08T06:03:10.878Z,57664.00
2018-05-08T06:04:10.852Z,59136.00
2018-05-08T06:05:10.846Z,59648.00
2018-05-08T06:06:10.841Z,59712.00
2018-05-08T06:07:10.839Z,58976.00
2018-05-08T06:08:10.829Z,61600.00
2018-05-08T06:09:10.925Z,63456.00
2018-05-08T06:10:10.819Z,60352.00
2018-05-08T06:11:10.815Z,59840.00
2018-05-08T06:12:10.824Z,63904.00
2018-05-08T06:13:10.805Z,64192.00
2018-05-08T06:14:10.801Z,61376.00
2018-05-08T06:15:10.798Z,63392.00
2018-05-08T06:16:10.792Z,66112.00
2018-05-08T06:17:10.793Z,65440.00
2018-05-08T06:18:10.785Z,64896.00
2018-05-08T06:19:10.781Z,64448.00
2018-05-08T06:20:10.782Z,64352.00
2018-05-08T06:21:10.790Z,63168.00
2018-05-08T06:22:10.772Z,63680.00
2018-05-08T06:23:10.769Z,56352.00
2018-05-08T06:24:10.768Z,43520.00
2018-05-08T06:25:10.762Z,14628.00
2018-05-08T06:26:10.758Z,22624.00
2018-05-08T06:27:10.757Z,43616.00
2018-05-08T06:28:10.752Z,35712.00
2018-05-08T06:29:10.757Z,46720.00
2018-05-08T06:30:10.759Z,54816.00
2018-05-08T06:31:10.746Z,65088.00
2018-05-08T06:32:10.791Z,34784.00
2018-05-08T06:33:10.736Z,67584.00
2018-05-08T06:34:10.736Z,68512.00
2018-05-08T06:35:10.733Z,47968.00
2018-05-08T06:36:10.727Z,68128.00
2018-05-08T06:37:10.726Z,43936.00
2018-05-08T06:38:10.728Z,21056.00
2018-05-08T06:39:10.746Z,45536.00
2018-05-08T06:40:10.720Z,21408.00
2018-05-08T06:41:10.714Z,45664.00
2018-05-08T06:42:10.713Z,0.00
2018-05-08T06:43:10.708Z,89952.00
2018-05-08T06:44:10.765Z,59328.00
2018-05-08T06:45:10.801Z,49856.00
2018-05-08T06:46:10.696Z,10872.00
2018-05-08T06:47:10.695Z,18400.00
2018-05-08T06:48:10.688Z,10072.00
2018-05-08T06:49:10.692Z,8632.00
2018-05-08T06:50:10.680Z,9460.00
2018-05-08T06:51:10.693Z,7772.00
2018-05-08T06:52:10.680Z,8136.00
2018-05-08T06:53:10.682Z,9136.00
2018-05-08T06:54:10.677Z,8472.00
2018-05-08T06:55:10.665Z,9208.00
2018-05-08T06:56:10.650Z,9960.00
2018-05-08T06:57:10.646Z,8300.00
2018-05-08T06:58:10.653Z,8212.00
2018-05-08T06:59:10.632Z,8388.00
2018-05-08T07:00:10.629Z,10072.00
2018-05-08T07:01:10.620Z,8476.00
2018-05-08T07:02:10.613Z,8844.00
2018-05-08T07:03:10.611Z,11328.00
2018-05-08T07:04:10.602Z,8456.00
2018-05-08T07:05:10.594Z,8072.00
2018-05-08T07:06:10.589Z,8228.00
2018-05-08T07:07:10.587Z,10628.00
2018-05-08T07:08:10.581Z,8024.00
2018-05-08T07:09:10.589Z,8232.00
2018-05-08T07:10:10.561Z,9532.00
2018-05-08T07:11:10.554Z,7092.00
2018-05-08T07:12:10.544Z,18016.00
2018-05-08T07:13:10.554Z,19712.00
2018-05-08T07:14:10.531Z,6712.00
2018-05-08T07:15:10.524Z,6596.00
2018-05-08T07:16:10.612Z,13172.00
2018-05-08T07:17:10.510Z,18720.00
2018-05-08T07:18:10.500Z,13712.00
2018-05-08T07:19:10.495Z,9324.00
2018-05-08T07:20:10.482Z,18848.00
2018-05-08T07:21:10.476Z,6004.00
2018-05-08T07:22:10.470Z,6116.00
2018-05-08T07:23:10.460Z,7100.00
2018-05-08T07:24:10.450Z,9812.00
2018-05-08T07:25:10.446Z,23232.00
2018-05-08T07:26:10.438Z,6672.00
2018-05-08T07:27:10.428Z,7520.00
2018-05-08T07:28:10.420Z,16032.00
2018-05-08T07:29:10.419Z,12440.00
2018-05-08T07:30:10.402Z,17600.00
2018-05-08T07:31:10.411Z,18064.00
2018-05-08T07:32:10.385Z,6940.00
2018-05-08T07:33:10.380Z,7116.00
2018-05-08T07:34:10.368Z,5480.00
2018-05-08T07:35:10.360Z,6512.00
2018-05-08T07:36:10.352Z,6216.00
2018-05-08T07:37:10.342Z,6312.00
2018-05-08T07:38:10.393Z,6200.00
2018-05-08T07:39:10.327Z,6776.00
2018-05-08T07:40:10.313Z,12516.00
2018-05-08T07:41:10.315Z,6168.00
2018-05-08T07:42:10.302Z,54272.00
2018-05-08T07:43:10.288Z,25312.00
2018-05-08T07:44:10.286Z,8356.00
2018-05-08T07:45:10.280Z,5892.00
2018-05-08T07:46:10.269Z,35296.00
2018-05-08T07:47:10.258Z,6244.00
2018-05-08T07:48:10.239Z,6092.00
2018-05-08T07:49:10.231Z,9208.00
2018-05-08T07:50:10.222Z,20288.00
2018-05-08T07:51:10.211Z,51104.00
2018-05-08T07:52:10.205Z,26784.00
2018-05-08T07:53:10.201Z,22304.00
2018-05-08T07:54:10.184Z,29408.00
2018-05-08T07:55:10.180Z,12976.00
2018-05-08T07:56:10.169Z,6156.00
2018-05-08T07:57:10.156Z,11768.00
2018-05-08T07:58:10.147Z,21760.00
2018-05-08T07:59:10.137Z,10544.00
2018-05-08T08:00:10.131Z,10200.00
2018-05-08T08:01:10.117Z,20384.00
2018-05-08T08:02:10.109Z,17624.00
2018-05-08T08:03:10.100Z,8248.00
2018-05-08T08:04:10.098Z,5336.00
2018-05-08T08:05:10.081Z,5252.00
2018-05-08T08:06:10.073Z,5232.00
2018-05-08T08:07:10.071Z,5756.00
2018-05-08T08:08:10.063Z,5352.00
2018-05-08T08:09:10.047Z,5336.00
2018-05-08T08:10:10.040Z,5388.00
2018-05-08T08:11:10.040Z,5308.00
2018-05-08T08:12:10.019Z,5428.00
2018-05-08T08:13:10.027Z,5428.00
2018-05-08T08:14:10.002Z,6560.00
2018-05-08T08:15:10.003Z,6692.00
2018-05-08T08:16:09.983Z,5592.00
2018-05-08T08:17:09.975Z,5460.00
2018-05-08T08:18:09.969Z,5500.00
2018-05-08T08:19:09.965Z,5368.00
2018-05-08T08:20:09.948Z,6592.00
2018-05-08T08:21:09.937Z,8712.00
2018-05-08T08:22:09.931Z,5392.00
2018-05-08T08:23:09.924Z,11904.00
2018-05-08T08:24:09.908Z,6072.00
2018-05-08T08:25:09.906Z,5428.00
2018-05-08T08:26:09.888Z,5464.00
2018-05-08T08:27:09.878Z,5420.00
2018-05-08T08:28:09.868Z,5916.00
2018-05-08T08:29:09.862Z,13572.00
2018-05-08T08:30:09.850Z,10212.00
2018-05-08T08:31:09.839Z,6168.00
2018-05-08T08:32:09.827Z,6052.00
2018-05-08T08:33:09.818Z,5624.00
2018-05-08T08:34:09.808Z,5668.00
2018-05-08T08:35:09.800Z,5748.00
2018-05-08T08:36:09.792Z,5700.00
2018-05-08T08:37:09.778Z,6420.00
2018-05-08T08:38:09.777Z,5636.00
2018-05-08T08:39:09.758Z,6064.00
2018-05-08T08:40:09.747Z,18092.00
2018-05-08T08:41:09.737Z,22912.00
2018-05-08T08:42:09.733Z,27808.00
2018-05-08T08:43:09.720Z,5920.00
2018-05-08T08:44:09.713Z,5500.00
2018-05-08T08:45:09.706Z,6968.00
2018-05-08T08:46:09.689Z,5492.00
2018-05-08T08:47:09.680Z,5916.00
2018-05-08T08:48:09.669Z,5580.00
2018-05-08T08:49:09.658Z,5508.00
2018-05-08T08:50:09.649Z,5596.00
2018-05-08T08:51:09.654Z,5608.00
2018-05-08T08:52:09.629Z,5576.00
2018-05-08T08:53:09.620Z,5628.00
2018-05-08T08:54:09.609Z,5648.00
2018-05-08T08:55:09.607Z,5852.00
2018-05-08T08:56:09.656Z,5764.00
2018-05-08T08:57:09.582Z,5948.00
2018-05-08T08:58:09.571Z,8612.00
2018-05-08T08:59:09.568Z,69408.00
2018-05-08T09:00:09.548Z,5900.00
2018-05-08T09:01:09.552Z,40448.00
2018-05-08T09:02:09.531Z,6736.00
2018-05-08T09:03:09.520Z,47904.00
2018-05-08T09:04:09.511Z,51968.00
2018-05-08T09:05:09.500Z,41856.00
2018-05-08T09:06:09.491Z,11568.00
2018-05-08T09:07:09.482Z,7396.00
2018-05-08T09:08:09.473Z,21792.00
2018-05-08T09:09:09.464Z,69088.00
2018-05-08T09:10:09.454Z,36000.00
2018-05-08T09:11:09.523Z,11340.00
2018-05-08T09:12:09.437Z,36096.00
2018-05-08T09:13:09.443Z,51264.00
2018-05-08T09:14:09.421Z,35616.00
2018-05-08T09:15:09.414Z,22336.00
2018-05-08T09:16:09.405Z,8132.00
2018-05-08T09:17:09.400Z,9008.00
2018-05-08T09:18:09.393Z,107616.00
2018-05-08T09:19:09.392Z,58752.00
2018-05-08T09:20:09.376Z,47264.00
2018-05-08T09:21:09.469Z,56608.00
2018-05-08T09:22:09.360Z,60608.00
2018-05-08T09:23:09.353Z,39776.00
2018-05-08T09:24:09.353Z,46272.00
2018-05-08T09:25:09.348Z,28160.00
2018-05-08T09:26:09.333Z,8908.00
2018-05-08T09:27:09.336Z,8204.00
2018-05-08T09:28:09.318Z,9056.00
2018-05-08T09:29:09.312Z,11012.00
2018-05-08T09:30:09.309Z,11844.00
2018-05-08T09:31:09.301Z,12388.00
2018-05-08T09:32:09.303Z,12216.00
2018-05-08T09:33:09.293Z,19680.00
2018-05-08T09:34:09.294Z,18592.00
2018-05-08T09:35:09.272Z,29600.00
2018-05-08T09:36:09.268Z,9832.00
2018-05-08T09:37:09.259Z,10840.00
2018-05-08T09:38:09.252Z,16704.00
2018-05-08T09:39:09.245Z,12760.00
2018-05-08T09:40:09.251Z,11376.00
2018-05-08T09:41:09.231Z,152160.00
2018-05-08T09:42:09.226Z,121472.00
2018-05-08T09:43:09.238Z,117952.00
2018-05-08T09:44:09.214Z,114272.00
2018-05-08T09:45:09.225Z,110144.00
2018-05-08T09:46:09.214Z,103456.00
2018-05-08T09:47:09.199Z,93792.00
2018-05-08T09:48:09.195Z,91328.00
2018-05-08T09:49:09.213Z,93472.00
2018-05-08T09:50:09.197Z,94272.00
2018-05-08T09:51:09.187Z,87904.00
2018-05-08T09:52:09.194Z,76384.00
2018-05-08T09:53:09.192Z,75872.00
2018-05-08T09:54:09.253Z,80288.00
2018-05-08T09:55:09.331Z,92160.00
2018-05-08T09:56:09.185Z,14956.00
2018-05-08T09:57:09.180Z,113024.00
2018-05-08T09:58:09.180Z,109984.00
2018-05-08T09:59:09.183Z,107232.00
2018-05-08T10:00:09.181Z,102144.00
2018-05-08T10:01:09.240Z,76576.00
2018-05-08T10:02:09.193Z,83520.00
2018-05-08T10:03:09.184Z,96896.00
2018-05-08T10:04:09.185Z,107936.00
2018-05-08T10:05:09.187Z,114592.00
2018-05-08T10:06:09.195Z,114336.00
2018-05-08T10:07:09.204Z,110464.00
2018-05-08T10:08:09.196Z,111136.00
2018-05-08T10:09:09.197Z,111424.00
2018-05-08T10:10:09.206Z,117120.00
2018-05-08T10:11:09.210Z,116992.00
2018-05-08T10:12:09.207Z,114720.00
2018-05-08T10:13:09.220Z,114784.00
2018-05-08T10:14:09.215Z,117344.00
2018-05-08T10:15:09.222Z,110080.00
2018-05-08T10:16:09.230Z,100128.00
2018-05-08T10:17:09.226Z,94304.00
2018-05-08T10:18:09.232Z,100992.00
2018-05-08T10:19:09.236Z,107488.00
2018-05-08T10:20:09.241Z,109824.00
2018-05-08T10:21:09.244Z,104640.00
2018-05-08T10:22:09.257Z,101792.00
2018-05-08T10:23:09.260Z,104672.00
2018-05-08T10:24:09.259Z,114944.00
2018-05-08T10:25:09.271Z,117984.00
2018-05-08T10:26:09.272Z,117088.00
2018-05-08T10:27:09.274Z,111232.00
2018-05-08T10:28:09.279Z,106944.00
2018-05-08T10:29:09.283Z,108288.00
2018-05-08T10:30:09.292Z,115168.00
2018-05-08T10:31:09.295Z,114400.00
2018-05-08T10:32:09.299Z,111360.00
2018-05-08T10:33:09.302Z,111264.00
2018-05-08T10:34:09.309Z,110944.00
2018-05-08T10:35:09.326Z,105760.00
2018-05-08T10:36:09.315Z,105312.00
2018-05-08T10:37:09.321Z,103136.00
2018-05-08T10:38:09.328Z,102816.00
2018-05-08T10:39:09.331Z,102304.00
2018-05-08T10:40:09.337Z,103680.00
2018-05-08T10:41:09.340Z,99712.00
2018-05-08T10:42:09.347Z,93152.00
2018-05-08T10:43:09.352Z,88896.00
2018-05-08T10:44:09.365Z,88704.00
2018-05-08T10:45:09.366Z,90400.00
2018-05-08T10:46:09.370Z,93152.00
2018-05-08T10:47:09.375Z,100576.00
2018-05-08T10:48:09.385Z,101472.00
2018-05-08T10:49:09.389Z,95200.00
2018-05-08T10:50:09.391Z,89952.00
2018-05-08T10:51:09.403Z,86496.00
2018-05-08T10:52:09.402Z,86112.00
2018-05-08T10:53:09.422Z,92032.00
2018-05-08T10:54:09.421Z,96832.00
2018-05-08T10:55:09.419Z,94560.00
2018-05-08T10:56:09.427Z,94496.00
2018-05-08T10:57:09.431Z,99392.00
2018-05-08T10:58:09.437Z,101056.00
2018-05-08T10:59:09.448Z,100992.00
2018-05-08T11:00:09.453Z,102336.00
2018-05-08T11:01:09.454Z,104640.00
2018-05-08T11:02:09.459Z,103840.00
2018-05-08T11:03:09.466Z,98752.00
2018-05-08T11:04:09.471Z,97696.00
2018-05-08T11:05:09.477Z,99104.00
2018-05-08T11:06:09.482Z,95296.00
2018-05-08T11:07:09.488Z,89728.00
2018-05-08T11:08:09.492Z,89120.00
2018-05-08T11:09:09.503Z,86656.00
2018-05-08T11:10:09.504Z,82688.00
2018-05-08T11:11:09.511Z,83776.00
2018-05-08T11:12:09.515Z,86720.00
2018-05-08T11:13:09.530Z,89056.00
2018-05-08T11:14:09.528Z,91232.00
2018-05-08T11:15:09.535Z,83744.00
2018-05-08T11:16:09.542Z,72896.00
2018-05-08T11:17:09.549Z,70400.00
2018-05-08T11:18:09.551Z,80864.00
2018-05-08T11:19:09.573Z,89056.00
2018-05-08T11:20:09.564Z,83232.00
2018-05-08T11:21:09.570Z,74528.00
2018-05-08T11:22:09.576Z,75584.00
2018-05-08T11:23:09.591Z,86880.00
2018-05-08T11:24:09.597Z,93472.00
2018-05-08T11:25:09.601Z,94464.00
2018-05-08T11:26:09.604Z,96256.00
2018-05-08T11:27:09.608Z,95840.00
2018-05-08T11:28:09.620Z,95200.00
2018-05-08T11:29:09.621Z,97280.00
2018-05-08T11:30:09.635Z,97728.00
2018-05-08T11:31:09.635Z,97792.00
2018-05-08T11:32:09.640Z,102144.00
2018-05-08T11:33:09.658Z,105920.00
2018-05-08T11:34:09.658Z,102464.00
2018-05-08T11:35:09.668Z,95872.00
2018-05-08T11:36:09.712Z,88800.00
2018-05-08T11:37:09.666Z,86720.00
2018-05-08T11:38:09.673Z,94208.00
2018-05-08T11:39:09.716Z,99040.00
2018-05-08T11:40:09.687Z,94464.00
2018-05-08T11:41:09.693Z,92000.00
2018-05-08T11:42:09.695Z,93760.00
2018-05-08T11:43:09.698Z,96736.00
2018-05-08T11:44:09.697Z,95072.00
2018-05-08T11:45:09.712Z,90656.00
2018-05-08T11:46:09.726Z,86688.00
2018-05-08T11:47:09.708Z,68192.00
2018-05-08T11:48:09.709Z,24704.00
2018-05-08T11:49:09.792Z,9676.00
2018-05-08T11:50:09.833Z,6416.00
2018-05-08T11:51:09.723Z,5108.00
2018-05-08T11:52:09.717Z,4660.00
2018-05-08T11:53:09.721Z,4460.00
2018-05-08T11:54:09.729Z,4556.00
2018-05-08T11:55:09.730Z,4492.00
2018-05-08T11:56:09.725Z,4436.00
2018-05-08T11:57:09.721Z,4404.00
2018-05-08T11:58:09.721Z,4340.00
2018-05-08T11:59:09.721Z,4300.00
2018-05-08T12:00:09.724Z,4336.00
2018-05-08T12:01:09.717Z,4280.00
2018-05-08T12:02:09.716Z,4320.00
2018-05-08T12:03:09.712Z,4276.00
2018-05-08T12:04:09.712Z,4308.00
2018-05-08T12:05:09.706Z,4284.00
2018-05-08T12:06:09.709Z,4288.00
2018-05-08T12:07:09.701Z,4256.00
2018-05-08T12:08:09.692Z,4264.00
2018-05-08T12:09:09.739Z,4248.00
2018-05-08T12:10:09.685Z,4240.00
2018-05-08T12:11:09.682Z,4228.00
2018-05-08T12:12:09.683Z,4276.00
2018-05-08T12:13:09.678Z,4248.00
2018-05-08T12:14:09.666Z,4168.00
2018-05-08T12:15:09.663Z,4108.00